sensor_id;sensor_type;location;lat;lon;timestamp;P1;durP1;ratioP1;P2;durP2;ratioP2
27257;SDS011;62045;49.986;8.672;2022-09-09T00:00:40;0.70;;;0.30;;
27257;SDS011;62045;49.986;8.672;2022-09-09T00:05:50;0.77;;;0.28;;
27257;SDS011;62045;49.986;8.672;2022-09-09T00:10:59;0.60;;;0.27;;
27257;SDS011;62045;49.986;8.672;2022-09-09T00:16:04;0.98;;;0.40;;
27257;SDS011;62045;49.986;8.672;2022-09-09T00:21:13;1.15;;;0.40;;
27257;SDS011;62045;49.986;8.672;2022-09-09T00:26:16;1.35;;;0.40;;
27257;SDS011;62045;49.986;8.672;2022-09-09T00:31:25;1.33;;;0.30;;
27257;SDS011;62045;49.986;8.672;2022-09-09T00:36:29;0.88;;;0.30;;
27257;SDS011;62045;49.986;8.672;2022-09-09T00:41:36;0.73;;;0.40;;
27257;SDS011;62045;49.986;8.672;2022-09-09T00:46:48;1.10;;;0.50;;
27257;SDS011;62045;49.986;8.672;2022-09-09T00:52:05;0.88;;;0.30;;
27257;SDS011;62045;49.986;8.672;2022-09-09T00:57:25;0.73;;;0.30;;
27257;SDS011;62045;49.986;8.672;2022-09-09T01:02:27;0.73;;;0.35;;
27257;SDS011;62045;49.986;8.672;2022-09-09T01:07:33;0.40;;;0.28;;
27257;SDS011;62045;49.986;8.672;2022-09-09T01:12:37;0.75;;;0.30;;
27257;SDS011;62045;49.986;8.672;2022-09-09T01:17:51;1.10;;;0.40;;
27257;SDS011;62045;49.986;8.672;2022-09-09T01:23:10;1.75;;;0.35;;
27257;SDS011;62045;49.986;8.672;2022-09-09T01:29:01;1.15;;;0.40;;
27257;SDS011;62045;49.986;8.672;2022-09-09T01:34:10;0.50;;;0.20;;
27257;SDS011;62045;49.986;8.672;2022-09-09T01:39:14;0.77;;;0.30;;
27257;SDS011;62045;49.986;8.672;2022-09-09T01:44:18;1.92;;;0.30;;
27257;SDS011;62045;49.986;8.672;2022-09-09T01:54:21;0.50;;;0.30;;
27257;SDS011;62045;49.986;8.672;2022-09-09T01:59:35;1.00;;;0.40;;
27257;SDS011;62045;49.986;8.672;2022-09-09T02:04:49;0.57;;;0.28;;
27257;SDS011;62045;49.986;8.672;2022-09-09T02:09:59;0.60;;;0.30;;
27257;SDS011;62045;49.986;8.672;2022-09-09T02:15:05;0.80;;;0.40;;
27257;SDS011;62045;49.986;8.672;2022-09-09T02:20:20;1.00;;;0.32;;
27257;SDS011;62045;49.986;8.672;2022-09-09T02:25:28;0.73;;;0.30;;
27257;SDS011;62045;49.986;8.672;2022-09-09T02:30:36;0.57;;;0.30;;
27257;SDS011;62045;49.986;8.672;2022-09-09T02:35:39;0.52;;;0.20;;
27257;SDS011;62045;49.986;8.672;2022-09-09T02:40:42;0.98;;;0.35;;
27257;SDS011;62045;49.986;8.672;2022-09-09T02:45:47;1.20;;;0.45;;
27257;SDS011;62045;49.986;8.672;2022-09-09T02:50:59;0.45;;;0.28;;
27257;SDS011;62045;49.986;8.672;2022-09-09T02:56:08;0.70;;;0.30;;
27257;SDS011;62045;49.986;8.672;2022-09-09T03:01:17;0.43;;;0.17;;
27257;SDS011;62045;49.986;8.672;2022-09-09T03:06:19;0.83;;;0.30;;
27257;SDS011;62045;49.986;8.672;2022-09-09T03:11:25;0.60;;;0.30;;
27257;SDS011;62045;49.986;8.672;2022-09-09T03:16:27;0.32;;;0.20;;
27257;SDS011;62045;49.986;8.672;2022-09-09T03:21:29;0.47;;;0.20;;
27257;SDS011;62045;49.986;8.672;2022-09-09T03:26:30;1.30;;;0.40;;
27257;SDS011;62045;49.986;8.672;2022-09-09T03:31:33;1.20;;;0.40;;
27257;SDS011;62045;49.986;8.672;2022-09-09T03:36:34;0.38;;;0.17;;
27257;SDS011;62045;49.986;8.672;2022-09-09T03:41:35;0.40;;;0.25;;
27257;SDS011;62045;49.986;8.672;2022-09-09T03:46:38;0.70;;;0.30;;
27257;SDS011;62045;49.986;8.672;2022-09-09T03:51:39;0.95;;;0.40;;
27257;SDS011;62045;49.986;8.672;2022-09-09T03:56:40;0.50;;;0.20;;
27257;SDS011;62045;49.986;8.672;2022-09-09T04:01:44;0.82;;;0.32;;
27257;SDS011;62045;49.986;8.672;2022-09-09T04:06:45;0.73;;;0.32;;
27257;SDS011;62045;49.986;8.672;2022-09-09T04:11:46;0.47;;;0.30;;
27257;SDS011;62045;49.986;8.672;2022-09-09T04:16:50;0.55;;;0.15;;
27257;SDS011;62045;49.986;8.672;2022-09-09T04:21:51;0.75;;;0.40;;
27257;SDS011;62045;49.986;8.672;2022-09-09T04:26:54;0.52;;;0.30;;
27257;SDS011;62045;49.986;8.672;2022-09-09T04:31:58;0.73;;;0.30;;
27257;SDS011;62045;49.986;8.672;2022-09-09T04:36:59;1.17;;;0.30;;
27257;SDS011;62045;49.986;8.672;2022-09-09T04:42:00;0.40;;;0.22;;
27257;SDS011;62045;49.986;8.672;2022-09-09T04:47:02;0.50;;;0.20;;
27257;SDS011;62045;49.986;8.672;2022-09-09T04:52:03;0.43;;;0.20;;
27257;SDS011;62045;49.986;8.672;2022-09-09T04:57:06;0.45;;;0.20;;
27257;SDS011;62045;49.986;8.672;2022-09-09T05:02:09;0.80;;;0.28;;
27257;SDS011;62045;49.986;8.672;2022-09-09T05:07:10;0.30;;;0.20;;
27257;SDS011;62045;49.986;8.672;2022-09-09T05:12:10;0.13;;;0.10;;
27257;SDS011;62045;49.986;8.672;2022-09-09T05:17:18;0.75;;;0.30;;
27257;SDS011;62045;49.986;8.672;2022-09-09T05:22:19;2.55;;;0.30;;
27257;SDS011;62045;49.986;8.672;2022-09-09T05:27:22;0.65;;;0.22;;
27257;SDS011;62045;49.986;8.672;2022-09-09T05:32:25;0.70;;;0.25;;
27257;SDS011;62045;49.986;8.672;2022-09-09T05:37:26;0.40;;;0.20;;
27257;SDS011;62045;49.986;8.672;2022-09-09T05:42:29;0.50;;;0.25;;
27257;SDS011;62045;49.986;8.672;2022-09-09T05:47:32;0.57;;;0.20;;
27257;SDS011;62045;49.986;8.672;2022-09-09T05:52:33;0.13;;;0.10;;
27257;SDS011;62045;49.986;8.672;2022-09-09T05:57:34;0.85;;;0.30;;
27257;SDS011;62045;49.986;8.672;2022-09-09T06:02:37;0.50;;;0.20;;
27257;SDS011;62045;49.986;8.672;2022-09-09T06:07:38;0.45;;;0.30;;
27257;SDS011;62045;49.986;8.672;2022-09-09T06:12:38;0.50;;;0.20;;
27257;SDS011;62045;49.986;8.672;2022-09-09T06:17:42;0.50;;;0.20;;
27257;SDS011;62045;49.986;8.672;2022-09-09T06:22:43;0.20;;;0.13;;
27257;SDS011;62045;49.986;8.672;2022-09-09T06:27:47;0.65;;;0.22;;
27257;SDS011;62045;49.986;8.672;2022-09-09T06:32:50;1.08;;;0.40;;
27257;SDS011;62045;49.986;8.672;2022-09-09T06:37:51;0.65;;;0.20;;
27257;SDS011;62045;49.986;8.672;2022-09-09T06:42:53;0.43;;;0.10;;
27257;SDS011;62045;49.986;8.672;2022-09-09T06:48:17;0.35;;;0.20;;
27257;SDS011;62045;49.986;8.672;2022-09-09T06:53:18;0.38;;;0.20;;
27257;SDS011;62045;49.986;8.672;2022-09-09T06:58:20;0.73;;;0.20;;
27257;SDS011;62045;49.986;8.672;2022-09-09T07:03:23;0.60;;;0.20;;
27257;SDS011;62045;49.986;8.672;2022-09-09T07:08:24;0.65;;;0.20;;
27257;SDS011;62045;49.986;8.672;2022-09-09T07:13:26;0.45;;;0.17;;
27257;SDS011;62045;49.986;8.672;2022-09-09T07:18:30;0.45;;;0.20;;
27257;SDS011;62045;49.986;8.672;2022-09-09T07:23:31;1.52;;;0.20;;
27257;SDS011;62045;49.986;8.672;2022-09-09T07:28:32;0.98;;;0.20;;
27257;SDS011;62045;49.986;8.672;2022-09-09T07:33:35;1.73;;;0.40;;
27257;SDS011;62045;49.986;8.672;2022-09-09T07:38:37;1.77;;;0.43;;
27257;SDS011;62045;49.986;8.672;2022-09-09T07:43:39;0.43;;;0.20;;
27257;SDS011;62045;49.986;8.672;2022-09-09T07:48:44;1.90;;;0.38;;
27257;SDS011;62045;49.986;8.672;2022-09-09T07:53:46;1.63;;;0.43;;
27257;SDS011;62045;49.986;8.672;2022-09-09T07:58:47;2.13;;;0.50;;
27257;SDS011;62045;49.986;8.672;2022-09-09T08:03:53;2.88;;;0.52;;
27257;SDS011;62045;49.986;8.672;2022-09-09T08:08:56;1.52;;;0.30;;
27257;SDS011;62045;49.986;8.672;2022-09-09T08:13:57;1.73;;;0.38;;
27257;SDS011;62045;49.986;8.672;2022-09-09T08:19:01;1.60;;;0.50;;
27257;SDS011;62045;49.986;8.672;2022-09-09T08:24:02;1.43;;;0.33;;
27257;SDS011;62045;49.986;8.672;2022-09-09T08:29:05;1.67;;;0.40;;
27257;SDS011;62045;49.986;8.672;2022-09-09T08:34:09;2.72;;;0.60;;
27257;SDS011;62045;49.986;8.672;2022-09-09T08:44:14;3.20;;;0.50;;
27257;SDS011;62045;49.986;8.672;2022-09-09T08:49:29;1.73;;;0.50;;
27257;SDS011;62045;49.986;8.672;2022-09-09T08:55:01;5.97;;;0.52;;
27257;SDS011;62045;49.986;8.672;2022-09-09T09:00:12;10.80;;;0.70;;
27257;SDS011;62045;49.986;8.672;2022-09-09T09:05:17;4.68;;;0.73;;
27257;SDS011;62045;49.986;8.672;2022-09-09T09:10:28;5.80;;;1.00;;
27257;SDS011;62045;49.986;8.672;2022-09-09T09:15:37;4.95;;;1.20;;
27257;SDS011;62045;49.986;8.672;2022-09-09T09:20:46;4.95;;;1.10;;
27257;SDS011;62045;49.986;8.672;2022-09-09T09:25:57;6.35;;;1.00;;
27257;SDS011;62045;49.986;8.672;2022-09-09T09:31:02;3.95;;;0.80;;
27257;SDS011;62045;49.986;8.672;2022-09-09T09:36:09;7.72;;;1.10;;
27257;SDS011;62045;49.986;8.672;2022-09-09T09:41:12;8.38;;;1.30;;
27257;SDS011;62045;49.986;8.672;2022-09-09T09:46:18;6.45;;;0.98;;
27257;SDS011;62045;49.986;8.672;2022-09-09T09:51:22;7.93;;;1.45;;
27257;SDS011;62045;49.986;8.672;2022-09-09T09:56:26;3.45;;;0.90;;
27257;SDS011;62045;49.986;8.672;2022-09-09T10:01:29;6.57;;;1.23;;
27257;SDS011;62045;49.986;8.672;2022-09-09T10:06:36;8.20;;;1.80;;
27257;SDS011;62045;49.986;8.672;2022-09-09T10:11:40;3.55;;;0.80;;
27257;SDS011;62045;49.986;8.672;2022-09-09T10:16:56;3.17;;;0.70;;
27257;SDS011;62045;49.986;8.672;2022-09-09T10:22:14;5.97;;;1.20;;
27257;SDS011;62045;49.986;8.672;2022-09-09T10:27:27;6.18;;;1.35;;
27257;SDS011;62045;49.986;8.672;2022-09-09T10:32:35;2.65;;;0.68;;
27257;SDS011;62045;49.986;8.672;2022-09-09T10:37:44;4.70;;;1.02;;
27257;SDS011;62045;49.986;8.672;2022-09-09T10:43:08;3.90;;;0.93;;
27257;SDS011;62045;49.986;8.672;2022-09-09T10:48:23;4.70;;;0.82;;
27257;SDS011;62045;49.986;8.672;2022-09-09T10:53:36;2.30;;;0.80;;
27257;SDS011;62045;49.986;8.672;2022-09-09T10:58:46;4.10;;;0.90;;
27257;SDS011;62045;49.986;8.672;2022-09-09T11:03:53;5.63;;;1.38;;
27257;SDS011;62045;49.986;8.672;2022-09-09T11:08:59;5.05;;;1.08;;
27257;SDS011;62045;49.986;8.672;2022-09-09T11:14:03;4.85;;;0.82;;
27257;SDS011;62045;49.986;8.672;2022-09-09T11:19:12;4.60;;;1.15;;
27257;SDS011;62045;49.986;8.672;2022-09-09T11:24:19;3.78;;;1.05;;
27257;SDS011;62045;49.986;8.672;2022-09-09T11:29:38;4.43;;;0.70;;
27257;SDS011;62045;49.986;8.672;2022-09-09T11:34:50;3.05;;;0.73;;
27257;SDS011;62045;49.986;8.672;2022-09-09T11:40:04;2.13;;;0.50;;
27257;SDS011;62045;49.986;8.672;2022-09-09T11:45:21;3.92;;;0.85;;
27257;SDS011;62045;49.986;8.672;2022-09-09T11:50:28;2.97;;;0.70;;
27257;SDS011;62045;49.986;8.672;2022-09-09T11:55:32;2.35;;;0.70;;
27257;SDS011;62045;49.986;8.672;2022-09-09T12:00:35;3.15;;;0.60;;
27257;SDS011;62045;49.986;8.672;2022-09-09T12:05:37;2.42;;;0.75;;
27257;SDS011;62045;49.986;8.672;2022-09-09T12:10:52;3.35;;;0.88;;
27257;SDS011;62045;49.986;8.672;2022-09-09T12:15:54;3.25;;;0.70;;
27257;SDS011;62045;49.986;8.672;2022-09-09T12:20:57;3.05;;;0.80;;
27257;SDS011;62045;49.986;8.672;2022-09-09T12:26:20;2.38;;;0.70;;
27257;SDS011;62045;49.986;8.672;2022-09-09T12:31:31;3.80;;;0.80;;
27257;SDS011;62045;49.986;8.672;2022-09-09T12:36:39;2.33;;;0.40;;
27257;SDS011;62045;49.986;8.672;2022-09-09T12:41:49;3.28;;;0.70;;
27257;SDS011;62045;49.986;8.672;2022-09-09T12:46:51;5.40;;;1.10;;
27257;SDS011;62045;49.986;8.672;2022-09-09T12:51:53;3.88;;;0.65;;
27257;SDS011;62045;49.986;8.672;2022-09-09T12:56:55;2.70;;;0.70;;
27257;SDS011;62045;49.986;8.672;2022-09-09T13:07:05;3.17;;;0.93;;
27257;SDS011;62045;49.986;8.672;2022-09-09T13:12:07;3.22;;;0.70;;
27257;SDS011;62045;49.986;8.672;2022-09-09T13:17:17;4.90;;;0.77;;
27257;SDS011;62045;49.986;8.672;2022-09-09T13:22:22;2.85;;;0.70;;
27257;SDS011;62045;49.986;8.672;2022-09-09T13:27:31;2.22;;;0.80;;
27257;SDS011;62045;49.986;8.672;2022-09-09T13:32:33;1.83;;;0.50;;
27257;SDS011;62045;49.986;8.672;2022-09-09T13:37:36;1.48;;;0.52;;
27257;SDS011;62045;49.986;8.672;2022-09-09T13:47:42;1.88;;;0.60;;
27257;SDS011;62045;49.986;8.672;2022-09-09T13:52:42;1.60;;;0.52;;
27257;SDS011;62045;49.986;8.672;2022-09-09T13:57:51;1.67;;;0.70;;
27257;SDS011;62045;49.986;8.672;2022-09-09T14:02:52;1.60;;;0.38;;
27257;SDS011;62045;49.986;8.672;2022-09-09T14:07:53;2.80;;;0.57;;
27257;SDS011;62045;49.986;8.672;2022-09-09T14:12:55;2.38;;;0.50;;
27257;SDS011;62045;49.986;8.672;2022-09-09T14:17:56;23.08;;;5.80;;
27257;SDS011;62045;49.986;8.672;2022-09-09T14:22:57;20.08;;;6.03;;
27257;SDS011;62045;49.986;8.672;2022-09-09T14:28:00;25.27;;;7.72;;
27257;SDS011;62045;49.986;8.672;2022-09-09T14:33:01;24.23;;;7.35;;
27257;SDS011;62045;49.986;8.672;2022-09-09T14:38:02;23.60;;;7.47;;
27257;SDS011;62045;49.986;8.672;2022-09-09T14:43:05;27.02;;;7.35;;
27257;SDS011;62045;49.986;8.672;2022-09-09T14:48:06;20.42;;;5.88;;
27257;SDS011;62045;49.986;8.672;2022-09-09T14:53:07;18.48;;;5.95;;
27257;SDS011;62045;49.986;8.672;2022-09-09T14:58:09;20.58;;;6.13;;
27257;SDS011;62045;49.986;8.672;2022-09-09T15:03:10;19.60;;;5.10;;
27257;SDS011;62045;49.986;8.672;2022-09-09T15:08:11;17.33;;;5.47;;
27257;SDS011;62045;49.986;8.672;2022-09-09T15:13:13;15.73;;;4.70;;
27257;SDS011;62045;49.986;8.672;2022-09-09T15:18:15;17.77;;;5.40;;
27257;SDS011;62045;49.986;8.672;2022-09-09T15:23:15;14.40;;;5.00;;
27257;SDS011;62045;49.986;8.672;2022-09-09T15:28:18;12.48;;;4.28;;
27257;SDS011;62045;49.986;8.672;2022-09-09T15:33:19;14.70;;;5.45;;
27257;SDS011;62045;49.986;8.672;2022-09-09T15:38:21;15.40;;;5.47;;
27257;SDS011;62045;49.986;8.672;2022-09-09T15:43:23;19.63;;;5.03;;
27257;SDS011;62045;49.986;8.672;2022-09-09T15:48:26;13.52;;;5.07;;
27257;SDS011;62045;49.986;8.672;2022-09-09T15:53:31;13.35;;;4.80;;
27257;SDS011;62045;49.986;8.672;2022-09-09T15:58:33;13.27;;;4.65;;
27257;SDS011;62045;49.986;8.672;2022-09-09T16:03:35;11.30;;;4.53;;
27257;SDS011;62045;49.986;8.672;2022-09-09T16:08:38;14.57;;;5.20;;
27257;SDS011;62045;49.986;8.672;2022-09-09T16:13:42;11.02;;;4.25;;
27257;SDS011;62045;49.986;8.672;2022-09-09T16:18:44;12.55;;;4.95;;
27257;SDS011;62045;49.986;8.672;2022-09-09T16:23:46;13.70;;;4.57;;
27257;SDS011;62045;49.986;8.672;2022-09-09T16:28:48;9.57;;;3.40;;
27257;SDS011;62045;49.986;8.672;2022-09-09T16:33:50;10.30;;;3.87;;
27257;SDS011;62045;49.986;8.672;2022-09-09T16:38:51;9.55;;;4.13;;
27257;SDS011;62045;49.986;8.672;2022-09-09T16:43:54;12.48;;;4.50;;
27257;SDS011;62045;49.986;8.672;2022-09-09T16:48:56;12.88;;;4.32;;
27257;SDS011;62045;49.986;8.672;2022-09-09T16:53:58;7.53;;;3.53;;
27257;SDS011;62045;49.986;8.672;2022-09-09T16:59:02;10.65;;;4.05;;
27257;SDS011;62045;49.986;8.672;2022-09-09T17:04:06;8.90;;;3.42;;
27257;SDS011;62045;49.986;8.672;2022-09-09T17:09:09;7.22;;;3.42;;
27257;SDS011;62045;49.986;8.672;2022-09-09T17:14:13;8.43;;;3.37;;
27257;SDS011;62045;49.986;8.672;2022-09-09T17:19:15;8.32;;;3.50;;
27257;SDS011;62045;49.986;8.672;2022-09-09T17:24:16;8.15;;;3.45;;
27257;SDS011;62045;49.986;8.672;2022-09-09T17:29:19;9.13;;;3.38;;
27257;SDS011;62045;49.986;8.672;2022-09-09T17:34:20;6.18;;;2.70;;
27257;SDS011;62045;49.986;8.672;2022-09-09T17:39:20;9.82;;;3.20;;
27257;SDS011;62045;49.986;8.672;2022-09-09T17:44:23;7.50;;;3.55;;
27257;SDS011;62045;49.986;8.672;2022-09-09T17:49:24;7.20;;;3.17;;
27257;SDS011;62045;49.986;8.672;2022-09-09T17:54:25;7.57;;;3.17;;
27257;SDS011;62045;49.986;8.672;2022-09-09T17:59:27;7.50;;;2.75;;
27257;SDS011;62045;49.986;8.672;2022-09-09T18:04:28;7.65;;;3.22;;
27257;SDS011;62045;49.986;8.672;2022-09-09T18:09:28;7.65;;;2.97;;
27257;SDS011;62045;49.986;8.672;2022-09-09T18:14:31;6.68;;;3.42;;
27257;SDS011;62045;49.986;8.672;2022-09-09T18:19:32;6.93;;;2.90;;
27257;SDS011;62045;49.986;8.672;2022-09-09T18:24:33;8.82;;;3.83;;
27257;SDS011;62045;49.986;8.672;2022-09-09T18:29:35;7.78;;;2.72;;
27257;SDS011;62045;49.986;8.672;2022-09-09T18:34:36;6.80;;;3.03;;
27257;SDS011;62045;49.986;8.672;2022-09-09T18:39:37;6.50;;;2.50;;
27257;SDS011;62045;49.986;8.672;2022-09-09T18:44:39;6.97;;;2.63;;
27257;SDS011;62045;49.986;8.672;2022-09-09T18:49:40;7.82;;;2.80;;
27257;SDS011;62045;49.986;8.672;2022-09-09T18:54:41;7.00;;;2.70;;
27257;SDS011;62045;49.986;8.672;2022-09-09T18:59:43;5.65;;;2.17;;
27257;SDS011;62045;49.986;8.672;2022-09-09T19:04:44;6.60;;;2.72;;
27257;SDS011;62045;49.986;8.672;2022-09-09T19:09:44;5.47;;;2.50;;
27257;SDS011;62045;49.986;8.672;2022-09-09T19:14:47;5.68;;;2.55;;
27257;SDS011;62045;49.986;8.672;2022-09-09T19:19:47;6.15;;;1.98;;
27257;SDS011;62045;49.986;8.672;2022-09-09T19:24:48;5.05;;;2.55;;
27257;SDS011;62045;49.986;8.672;2022-09-09T19:29:50;5.55;;;2.42;;
27257;SDS011;62045;49.986;8.672;2022-09-09T19:34:51;5.47;;;2.38;;
27257;SDS011;62045;49.986;8.672;2022-09-09T19:39:52;5.25;;;2.10;;
27257;SDS011;62045;49.986;8.672;2022-09-09T19:44:54;5.47;;;2.08;;
27257;SDS011;62045;49.986;8.672;2022-09-09T19:49:55;4.43;;;1.90;;
27257;SDS011;62045;49.986;8.672;2022-09-09T19:54:56;4.75;;;2.22;;
27257;SDS011;62045;49.986;8.672;2022-09-09T19:59:58;4.70;;;2.00;;
27257;SDS011;62045;49.986;8.672;2022-09-09T20:04:59;4.65;;;1.90;;
27257;SDS011;62045;49.986;8.672;2022-09-09T20:10:00;5.07;;;2.08;;
27257;SDS011;62045;49.986;8.672;2022-09-09T20:15:02;7.78;;;2.15;;
27257;SDS011;62045;49.986;8.672;2022-09-09T20:20:03;5.77;;;1.97;;
27257;SDS011;62045;49.986;8.672;2022-09-09T20:25:05;3.55;;;1.65;;
27257;SDS011;62045;49.986;8.672;2022-09-09T20:30:08;4.68;;;1.80;;
27257;SDS011;62045;49.986;8.672;2022-09-09T20:35:10;3.92;;;2.08;;
27257;SDS011;62045;49.986;8.672;2022-09-09T20:40:11;3.78;;;1.58;;
27257;SDS011;62045;49.986;8.672;2022-09-09T20:45:13;4.60;;;1.90;;
27257;SDS011;62045;49.986;8.672;2022-09-09T20:50:14;6.00;;;2.20;;
27257;SDS011;62045;49.986;8.672;2022-09-09T20:55:15;3.63;;;1.60;;
27257;SDS011;62045;49.986;8.672;2022-09-09T21:00:17;3.97;;;1.73;;
27257;SDS011;62045;49.986;8.672;2022-09-09T21:05:18;5.13;;;2.20;;
27257;SDS011;62045;49.986;8.672;2022-09-09T21:10:19;11.55;;;2.10;;
27257;SDS011;62045;49.986;8.672;2022-09-09T21:15:21;5.30;;;2.10;;
27257;SDS011;62045;49.986;8.672;2022-09-09T21:20:22;4.47;;;1.98;;
27257;SDS011;62045;49.986;8.672;2022-09-09T21:25:23;4.95;;;1.60;;
27257;SDS011;62045;49.986;8.672;2022-09-09T21:30:25;4.32;;;1.92;;
27257;SDS011;62045;49.986;8.672;2022-09-09T21:35:26;4.72;;;1.92;;
27257;SDS011;62045;49.986;8.672;2022-09-09T21:40:27;3.65;;;1.80;;
27257;SDS011;62045;49.986;8.672;2022-09-09T21:45:29;4.05;;;1.73;;
27257;SDS011;62045;49.986;8.672;2022-09-09T21:50:34;3.87;;;1.80;;
27257;SDS011;62045;49.986;8.672;2022-09-09T21:55:35;3.42;;;1.67;;
27257;SDS011;62045;49.986;8.672;2022-09-09T22:00:40;4.97;;;2.07;;
27257;SDS011;62045;49.986;8.672;2022-09-09T22:05:42;3.10;;;1.52;;
27257;SDS011;62045;49.986;8.672;2022-09-09T22:10:44;4.80;;;1.88;;
27257;SDS011;62045;49.986;8.672;2022-09-09T22:15:47;3.55;;;1.63;;
27257;SDS011;62045;49.986;8.672;2022-09-09T22:20:48;4.03;;;1.60;;
27257;SDS011;62045;49.986;8.672;2022-09-09T22:25:49;3.47;;;1.50;;
27257;SDS011;62045;49.986;8.672;2022-09-09T22:30:51;3.78;;;1.45;;
27257;SDS011;62045;49.986;8.672;2022-09-09T22:35:52;3.53;;;1.45;;
27257;SDS011;62045;49.986;8.672;2022-09-09T22:40:53;4.63;;;1.77;;
27257;SDS011;62045;49.986;8.672;2022-09-09T22:45:55;3.92;;;1.60;;
27257;SDS011;62045;49.986;8.672;2022-09-09T22:50:59;5.00;;;1.75;;
27257;SDS011;62045;49.986;8.672;2022-09-09T22:56:01;4.40;;;2.08;;
27257;SDS011;62045;49.986;8.672;2022-09-09T23:01:08;2.70;;;1.23;;
27257;SDS011;62045;49.986;8.672;2022-09-09T23:06:11;2.40;;;1.30;;
27257;SDS011;62045;49.986;8.672;2022-09-09T23:11:13;3.53;;;1.60;;
27257;SDS011;62045;49.986;8.672;2022-09-09T23:16:16;4.63;;;1.50;;
27257;SDS011;62045;49.986;8.672;2022-09-09T23:21:19;3.08;;;1.50;;
27257;SDS011;62045;49.986;8.672;2022-09-09T23:26:21;4.60;;;1.23;;
27257;SDS011;62045;49.986;8.672;2022-09-09T23:31:25;2.38;;;1.05;;
27257;SDS011;62045;49.986;8.672;2022-09-09T23:36:27;2.60;;;1.00;;
27257;SDS011;62045;49.986;8.672;2022-09-09T23:41:30;2.45;;;1.13;;
27257;SDS011;62045;49.986;8.672;2022-09-09T23:46:33;2.43;;;1.00;;
27257;SDS011;62045;49.986;8.672;2022-09-09T23:51:34;3.23;;;1.53;;
27257;SDS011;62045;49.986;8.672;2022-09-09T23:56:37;2.78;;;1.10;;
